Nearby METAR Reports

 

KMSN - Madison, Wisconsin, USA
Distance from station: WNW 8mi, 13km
Updated: Sun, Oct-25-2020 2:53am CDT
Overcast
Overcast
 Wind from NNE
Wind: NNE 7 mph , 11 km/h
Temperature: 32°F , 0°C
Wind Chill: 25°F , -4°C
Dew Point: 23°F , -5°C
Humidity: 69%
Barometer: 30.28 inHg , 1025.4 hPa
Clouds: Overcast
Visibility: 10 miles , 16 km
Cloud details: Overcast 9000 ft
2020/10/25 07:53 KMSN 250753Z AUTO 02006KT 10SM OVC090 00/M05 A3028 RMK AO2 SLP262 T00001050
KC29 - Middleton, Wisconsin, USA
Distance from station: W 17mi, 27km
Updated: Sun, Oct-25-2020 3:35am CDT
Overcast
Overcast
 Wind from NNE
Wind: NNE 8 mph , 13 km/h
Temperature: 34°F , 1°C
Wind Chill: 27°F , -3°C
Dew Point: 25°F , -4°C
Humidity: 70%
Barometer: 30.29 inHg , 1025.7 hPa
Clouds: Overcast
Visibility: 10 miles , 16 km
Cloud details: Overcast 9000 ft
2020/10/25 08:35 KC29 250835Z AUTO 03007KT 10SM OVC090 01/M04 A3029 RMK AO1 T00081045
 
KRYV - Watertown, Wisconsin, USA
Distance from station: ENE 25mi, 40km
Updated: Sun, Oct-25-2020 3:35am CDT
Overcast
Overcast
 Wind from NNE
Wind: NNE 9 mph , 15 km/h
Temperature: 32°F , 0°C
Wind Chill: 24°F , -4°C
Dew Point: 23°F , -5°C
Humidity: 69%
Barometer: 30.28 inHg , 1025.4 hPa
Clouds: Overcast
Visibility: 10 miles , 16 km
Cloud details: Overcast 9000 ft
2020/10/25 08:35 KRYV 250835Z AUTO 02008KT 10SM OVC090 00/M05 A3028 RMK AO2 T00021047
KUNU - Juneau, Wisconsin, USA
Distance from station: NE 33mi, 54km
Updated: Sun, Oct-25-2020 3:35am CDT
Overcast
Overcast
 Wind from NNE
Wind: NNE 5 mph , 7 km/h
Temperature: 32°F , 0°C
Wind Chill: 27°F , -3°C
Dew Point: 19°F , -7°C
Humidity: 60%
Barometer: 30.29 inHg , 1025.7 hPa
Clouds: Overcast
Visibility: 10 miles , 16 km
Cloud details: Overcast 9000 ft
2020/10/25 08:35 KUNU 250835Z AUTO 02004KT 10SM OVC090 00/M07 A3029 RMK AO2 T10011067
 
KJVL - Janesville/Rock, Wisconsin, USA
Distance from station: SSE 34mi, 55km
Updated: Sun, Oct-25-2020 3:35am CDT
Partly cloudy
Partly cloudy
 Wind from NNE
Wind: NNE 10 mph , 17 km/h
Temperature: 36°F , 2°C
Wind Chill: 29°F , -2°C
Dew Point: 27°F , -3°C
Humidity: 70%
Barometer: 30.26 inHg , 1024.7 hPa
Clouds: Partly cloudy
Visibility: 10 miles , 16 km
Cloud details: Partly cloudy 11000 ft
2020/10/25 08:35 KJVL 250835Z AUTO 03009KT 10SM SCT110 02/M03 A3026 RMK AO2
KEFT - Monroe, Wisconsin, USA
Distance from station: SSW 39mi, 63km
Updated: Sun, Oct-25-2020 3:35am CDT
Clear
Clear
 Wind from NNE
Wind: NNE 6 mph , 9 km/h
Temperature: 32°F , 0°C
Wind Chill: 26°F , -3°C
Dew Point: 23°F , -5°C
Humidity: 69%
Barometer: 30.25 inHg , 1024.4 hPa
Clouds: Clear
Visibility: 10 miles , 16 km
2020/10/25 08:35 KEFT 250835Z AUTO 02005KT 10SM CLR 00/M05 A3025 RMK AO2 T00011047
 
KDLL - Dells/Baraboo, Wisconsin, USA
Distance from station: NW 41mi, 65km
Updated: Sun, Oct-25-2020 3:35am CDT
Overcast
Overcast
 Wind from NE
Wind: NE 6 mph , 9 km/h
Temperature: 30°F , -1°C
Wind Chill: 24°F , -4°C
Dew Point: 21°F , -6°C
Humidity: 69%
Barometer: 30.29 inHg , 1025.7 hPa
Clouds: Overcast
Visibility: 10 miles , 16 km
Cloud details: Partly cloudy 6000 ft
Overcast 11000 ft
2020/10/25 08:35 KDLL 250835Z AUTO 05005KT 10SM SCT060 OVC110 M01/M06 A3029 RMK AO2 T10141064
KUES - Waukesha Cnty, Wisconsin, USA
Distance from station: E 48mi, 77km
Updated: Sun, Oct-25-2020 3:35am CDT
Overcast
Overcast
 Wind from NNE
Wind: NNE 5 mph , 7 km/h
Temperature: 32°F , 0°C
Wind Chill: 27°F , -3°C
Dew Point: 23°F , -5°C
Humidity: 69%
Barometer: 30.27 inHg , 1025.1 hPa
Clouds: Overcast
Visibility: 10 miles , 16 km
Cloud details: Overcast 10000 ft
2020/10/25 08:35 KUES 250835Z AUTO 02004KT 10SM OVC100 00/M05 A3027 RMK AO2
 
KC35 - Reedsburg, Wisconsin, USA
Distance from station: NW 50mi, 80km
Updated: Sun, Oct-25-2020 3:35am CDT
Overcast
Overcast
 Wind from NNE
Wind: NNE 5 mph , 7 km/h
Temperature: 32°F , 0°C
Wind Chill: 27°F , -3°C
Dew Point: 21°F , -6°C
Humidity: 64%
Barometer: 30.30 inHg , 1026.1 hPa
Clouds: Overcast
Visibility: 10 miles , 16 km
Cloud details: Mostly cloudy 6000 ft
Mostly cloudy 7000 ft
Overcast 11000 ft
2020/10/25 08:35 KC35 250835Z AUTO 03004KT 10SM BKN060 BKN070 OVC110 00/M06 A3030 RMK AO2 T10051065 PWINO
KLNR - Lone Rock, Wisconsin, USA
Distance from station: W 50mi, 81km
Updated: Sun, Oct-25-2020 2:56am CDT
Light snow, Overcast
Light snow, Overcast
 Wind from NE
Wind: NE 6 mph , 9 km/h
Temperature: 34°F , 1°C
Wind Chill: 29°F , -2°C
Dew Point: 21°F , -6°C
Humidity: 60%
Barometer: 30.30 inHg , 1026.1 hPa
Summary: Light Snow
Clouds: Overcast
Visibility: 9 miles , 14 km
Cloud details: Overcast 8500 ft
2020/10/25 07:56 KLNR 250756Z AUTO 04005KT 9SM -SN OVC085 01/M06 A3030 RMK AO2 SLP264 P0000 T00111056
 
KBUU - Burlington, Wisconsin, USA
Distance from station: ESE 54mi, 86km
Updated: Sun, Oct-25-2020 3:35am CDT
Partly cloudy
Partly cloudy
 Wind from N
Wind: N 6 mph , 9 km/h
Temperature: 34°F , 1°C
Wind Chill: 29°F , -2°C
Dew Point: 27°F , -3°C
Humidity: 75%
Barometer: 30.26 inHg , 1024.7 hPa
Clouds: Partly cloudy
Visibility: 10 miles , 16 km
Cloud details: Partly cloudy 11000 ft
2020/10/25 08:35 KBUU 250835Z AUTO 01005KT 10SM SCT110 01/M03 A3026 RMK AO2 T00101029 PWINO
KMRJ - Mineral Point, Wisconsin, USA
Distance from station: WSW 54mi, 88km
Updated: Sun, Oct-25-2020 3:35am CDT
Overcast
Overcast
 Wind from NNE
Wind: NNE 6 mph , 9 km/h
Temperature: 34°F , 1°C
Wind Chill: 29°F , -2°C
Dew Point: 23°F , -5°C
Humidity: 65%
Barometer: 30.27 inHg , 1025.1 hPa
Clouds: Overcast
Visibility: 10 miles , 16 km
Cloud details: Overcast 10000 ft
2020/10/25 08:35 KMRJ 250835Z AUTO 03005KT 10SM OVC100 01/M05 A3027 RMK AO2
 
KETB - West Bend, Wisconsin, USA
Distance from station: ENE 58mi, 93km
Updated: Sun, Oct-25-2020 3:35am CDT
Overcast
Overcast
 Wind from N
Wind: N 3 mph , 6 km/h
Temperature: 32°F , 0°C
Dew Point: 25°F , -4°C
Humidity: 75%
Barometer: 30.28 inHg , 1025.4 hPa
Clouds: Overcast
Visibility: 10 miles , 16 km
Cloud details: Overcast 10000 ft
2020/10/25 08:35 KETB 250835Z AUTO 01003KT 10SM OVC100 00/M04 A3028 RMK AO2
KFLD - Fond Du Lac, Wisconsin, USA
Distance from station: NE 58mi, 94km
Updated: Sun, Oct-25-2020 2:53am CDT
Overcast
Overcast
 Wind from NE
Wind: NE 9 mph , 15 km/h
Temperature: 34°F , 1°C
Wind Chill: 27°F , -3°C
Dew Point: 19°F , -7°C
Humidity: 56%
Barometer: 30.29 inHg , 1025.7 hPa
Clouds: Overcast
Visibility: 10 miles , 16 km
Cloud details: Overcast 8000 ft
2020/10/25 07:53 KFLD 250753Z AUTO 04008KT 10SM OVC080 01/M07 A3029 RMK AO2 SLP267 T00111067
 
KMWC - Milwaukee/Lawren, Wisconsin, USA
Distance from station: E 59mi, 94km
Updated: Sun, Oct-25-2020 3:35am CDT
Overcast
Overcast
 Wind from N
Wind: N 7 mph , 11 km/h
Temperature: 32°F , 0°C
Wind Chill: 25°F , -4°C
Dew Point: 23°F , -5°C
Humidity: 69%
Barometer: 30.28 inHg , 1025.4 hPa
Clouds: Overcast
Visibility: 10 miles , 16 km
Cloud details: Overcast 10000 ft
2020/10/25 08:35 KMWC 250835Z AUTO 36006KT 10SM OVC100 00/M05 A3028 RMK AO2
KFEP - Freeport, Illinois, USA
Distance from station: SSW 62mi, 100km
Updated: Sun, Oct-25-2020 3:35am CDT
Clear
Clear
 Wind from NNE
Wind: NNE 6 mph , 9 km/h
Temperature: 34°F , 1°C
Wind Chill: 29°F , -2°C
Dew Point: 27°F , -3°C
Humidity: 75%
Barometer: 30.28 inHg , 1025.4 hPa
Clouds: Clear
Visibility: 10 miles , 16 km
2020/10/25 08:35 KFEP 250835Z AUTO 03005KT 10SM CLR 01/M03 A3028 RMK AO2 T00061034
 
KRFD - Rockford, Illinois, USA
Distance from station: S 62mi, 100km
Updated: Sun, Oct-25-2020 2:54am CDT
Overcast
Overcast
 Wind from NNE
Wind: NNE 10 mph , 17 km/h
Temperature: 37°F , 3°C
Wind Chill: 30°F , -1°C
Dew Point: 27°F , -3°C
Humidity: 65%
Barometer: 30.26 inHg , 1024.7 hPa
Clouds: Overcast
Visibility: 10 miles , 16 km
Cloud details: Overcast 17000 ft
2020/10/25 07:54 KRFD 250754Z 02009KT 10SM OVC170 03/M03 A3026 RMK AO2 SLP252 T00281028
KY50 - Wautoma, Wisconsin, USA
Distance from station: N 65mi, 104km
Updated: Sun, Oct-25-2020 2:56am CDT
Overcast
Overcast
 Wind from calm
Wind: Calm
Temperature: 30°F , -1°C
Dew Point: 21°F , -6°C
Humidity: 69%
Barometer: 30.32 inHg , 1026.8 hPa
Clouds: Overcast
Visibility: 10 miles , 16 km
Cloud details: Mostly cloudy 9000 ft
Overcast 11000 ft
2020/10/25 07:56 KY50 250756Z AUTO 00000KT 10SM BKN090 OVC110 M01/M06 A3032 RMK AO2 SLP274 T10111061 FZRANO $
 
KMKE - Milwaukee, Wisconsin, USA
Distance from station: E 66mi, 107km
Updated: Sun, Oct-25-2020 2:52am CDT
Overcast
Overcast
 Wind from N
Wind: N 8 mph , 13 km/h
Temperature: 37°F , 3°C
Wind Chill: 31°F , -1°C
Dew Point: 27°F , -3°C
Humidity: 65%
Barometer: 30.26 inHg , 1024.7 hPa
Clouds: Overcast
Visibility: 10 miles , 16 km
Cloud details: Partly cloudy 3600 ft
Overcast 11000 ft
2020/10/25 07:52 KMKE 250752Z 35007KT 10SM SCT036 OVC110 03/M03 A3026 RMK AO2 SLP255 T00281033
KOSH - Oshkosh, Wisconsin, USA
Distance from station: NNE 68mi, 110km
Updated: Sun, Oct-25-2020 2:53am CDT
Mostly cloudy
Mostly cloudy
 Wind from N
Wind: N 8 mph , 13 km/h
Temperature: 32°F , 0°C
Wind Chill: 25°F , -4°C
Dew Point: 21°F , -6°C
Humidity: 64%
Barometer: 30.29 inHg , 1025.7 hPa
Clouds: Mostly cloudy
Visibility: 10 miles , 16 km
Cloud details: Few Clouds 8000 ft
Mostly cloudy 10000 ft
2020/10/25 07:53 KOSH 250753Z AUTO 35007KT 10SM FEW080 BKN100 00/M06 A3029 RMK AO2 SLP270 T00001061